Latest Coastal Weather Observations for Marion Reef

IDQ60701

Issued at 2:36 pm EST Tuesday 26 July 2016 (issued every 10 minutes, with the page automatically refreshed every 10 minutes)

About coastal observations | Map of coastal stations | Coastal observations for QLD | Marine services | Other Formats
Station Details ID: 200704 Name: MARION REEF Lat: -19.10 Lon: 152.39 Height: 2.0 m
Data from the previous 72 hours. | See also: Recent months for locations in Queensland
Date/Time
EST
Temp
°C
Wind Pressure Rain since
9am
mm
Weather Cloud Vis
km
Sea
Height
m
Swell
Dir  Spd
kts
Gust
kts
hPa Trend Height
m
Period
s
Dir
26/02:30pm 24.8 SE 14 16 1013.8 - - - - - - - - -
26/02:00pm 24.8 SE 13 15 1013.9 - - - - - - - - -
26/01:30pm 24.8 SE 13 16 1014.4 - - - - - - - - -
26/01:00pm 24.2 SE 14 17 1014.6 - - - - - - - - -
26/12:30pm 24.8 SE 14 17 1014.9 - - - - - - - - -
26/12:00pm 24.6 SE 14 15 1015.2 - - - - - - - - -
26/11:30am 24.7 ESE 13 16 1015.6 - - - - - - - - -
26/11:00am 24.8 ESE 14 17 1015.9 - - - - - - - - -
26/10:30am 24.8 ESE 13 16 1016.4 - - - - - - - - -
26/10:00am 24.6 SE 15 17 1016.3 - - - - - - - - -
26/09:30am 24.5 SE 14 17 1016.5 - - - - - - - - -
26/09:00am 24.1 SE 15 17 1016.4 - - - - - - - - -
26/08:30am 24.4 SE 14 17 1016.4 - - - - - - - - -
26/08:00am 24.3 SE 14 16 1016.3 - - - - - - - - -
26/07:30am 24.4 SE 14 17 1016.2 - - - - - - - - -
26/07:00am 24.4 SE 14 16 1016.1 - - - - - - - - -
26/06:30am 24.4 SE 14 17 1015.9 - - - - - - - - -
26/06:00am 24.1 SE 14 16 1015.6 - - - - - - - - -
26/05:30am 24.0 SE 14 16 1015.5 - - - - - - - - -
26/05:00am 24.0 SE 14 16 1015.2 - - - - - - - - -
26/04:30am 24.8 SE 14 17 1015.3 - - - - - - - - -
26/04:00am 24.1 SE 13 15 1015.1 - - - - - - - - -
26/03:30am 24.0 SE 13 16 1015.2 - - - - - - - - -
26/03:00am 24.2 SE 13 15 1015.0 - - - - - - - - -
26/02:30am 23.9 SSE 13 15 1015.3 - - - - - - - - -
26/02:00am 23.9 SE 12 15 1015.4 - - - - - - - - -
26/01:30am 24.4 SSE 14 16 1015.6 - - - - - - - - -
26/01:00am 24.2 SE 14 16 1015.5 - - - - - - - - -
26/12:30am 24.2 SSE 13 16 1015.7 - - - - - - - - -
26/12:00am 24.2 SE 13 14 1015.7 - - - - - - - - -
 
Date/Time
EST
Temp
°C
Wind Pressure Rain since
9am
mm
Weather Cloud Vis
km
Sea
Height
m
Swell
Dir  Spd
kts
Gust
kts
hPa Trend Height
m
Period
s
Dir
25/11:30pm 24.2 ESE 13 15 1015.9 - - - - - - - - -
25/11:00pm 24.2 ESE 13 15 1015.9 - - - - - - - - -
25/10:30pm 24.3 ESE 13 14 1016.2 - - - - - - - - -
25/10:00pm 24.2 ESE 13 15 1016.2 - - - - - - - - -
25/09:30pm 24.3 SE 13 16 1016.3 - - - - - - - - -
25/09:00pm 24.3 ESE 14 15 1016.2 - - - - - - - - -
25/08:30pm 24.5 ESE 13 16 1016.0 - - - - - - - - -
25/08:00pm 24.4 SE 13 16 1015.8 - - - - - - - - -
25/07:30pm 24.9 SE 12 14 1015.6 - - - - - - - - -
25/07:00pm 24.1 SE 13 15 1015.2 - - - - - - - - -
25/06:30pm 24.4 SE 12 14 1015.0 - - - - - - - - -
25/06:00pm 24.5 SE 12 14 1014.6 - - - - - - - - -
25/05:30pm 24.4 SE 12 14 1014.6 - - - - - - - - -
25/05:00pm 24.5 SE 12 15 1014.3 - - - - - - - - -
25/04:30pm 24.9 SE 11 13 1014.3 - - - - - - - - -
25/04:00pm 24.5 SE 11 13 1014.2 - - - - - - - - -
25/03:30pm 24.4 SE 11 12 1014.0 - - - - - - - - -
25/03:00pm 24.7 SE 11 12 1014.0 - - - - - - - - -
25/02:30pm 24.8 SE 10 12 1014.2 - - - - - - - - -
25/02:00pm 24.3 SE 10 12 1014.2 - - - - - - - - -
25/01:30pm 24.6 SE 11 12 1014.5 - - - - - - - - -
25/01:00pm 24.4 ESE 9 11 1014.7 - - - - - - - - -
25/12:30pm 24.7 ESE 11 13 1015.2 - - - - - - - - -
25/12:00pm 24.4 ESE 12 14 1015.3 - - - - - - - - -
25/11:30am 24.8 ESE 12 14 1015.9 - - - - - - - - -
25/11:00am 24.9 ESE 12 14 1016.0 - - - - - - - - -
25/10:30am 24.8 ESE 13 16 1016.3 - - - - - - - - -
25/10:00am 24.6 ESE 13 - 1016.5 - - - - - - - - -
25/09:30am 24.6 ESE 13 14 1016.8 - - - - - - - - -
25/09:00am 24.6 ESE 13 15 1016.7 - - - - - - - - -
25/08:30am 24.4 ESE 13 15 1016.7 - - - - - - - - -
25/08:00am 24.4 ESE 13 15 1016.5 - - - - - - - - -
25/07:30am 24.2 ESE 13 15 1016.2 - - - - - - - - -
25/07:00am 24.4 E 14 16 1015.8 - - - - - - - - -
25/06:30am 24.4 E 13 16 1015.7 - - - - - - - - -
25/06:00am 24.4 ESE 12 15 1015.4 - - - - - - - - -
25/05:30am 24.3 ESE 13 16 1015.0 - - - - - - - - -
25/05:00am 24.4 ESE 13 14 1014.6 - - - - - - - - -
25/04:30am 24.2 ESE 13 15 1014.4 - - - - - - - - -
25/04:00am 24.4 ESE 13 15 1014.2 - - - - - - - - -
25/03:30am 24.1 SE 12 14 1014.5 - - - - - - - - -
25/03:00am 24.2 ESE 1 3 1014.6 - - - - - - - - -
25/02:30am 24.1 CALM 0 2 1015.0 - - - - - - - - -
25/02:00am 24.1 ESE 1 3 1015.1 - - - - - - - - -
25/01:30am 24.1 CALM 0 3 1015.4 - - - - - - - - -
25/01:00am 24.3 ESE 1 2 1015.7 - - - - - - - - -
25/12:30am 24.2 ESE 1 3 1016.0 - - - - - - - - -
25/12:00am 24.2 ESE 1 3 1015.9 - - - - - - - - -
 
Date/Time
EST
Temp
°C
Wind Pressure Rain since
9am
mm
Weather Cloud Vis
km
Sea
Height
m
Swell
Dir  Spd
kts
Gust
kts
hPa Trend Height
m
Period
s
Dir
24/11:30pm 24.3 ESE 1 3 1016.0 - - - - - - - - -
24/11:00pm 24.2 ESE 1 3 1015.8 - - - - - - - - -
24/10:30pm 24.5 ESE 1 2 1016.0 - - - - - - - - -
24/10:00pm 24.2 ESE 1 2 1015.9 - - - - - - - - -
24/09:30pm 24.4 ESE 1 2 1015.8 - - - - - - - - -
24/09:00pm 24.4 ESE 1 3 1015.6 - - - - - - - - -
24/08:30pm 24.4 CALM 0 3 1015.4 - - - - - - - - -
24/08:00pm 24.7 CALM 0 3 1015.2 - - - - - - - - -
24/07:30pm 24.4 CALM 0 2 1015.1 - - - - - - - - -
24/07:00pm 24.6 ESE 1 4 1014.8 - - - - - - - - -
24/06:30pm 24.6 SE 8 9 1014.6 - - - - - - - - -
24/06:00pm 24.3 SE 8 11 1014.2 - - - - - - - - -
24/05:30pm 24.5 SE 8 9 1013.8 - - - - - - - - -
24/05:00pm 24.5 ESE 7 9 1013.5 - - - - - - - - -
24/04:30pm 24.5 SE 7 9 1013.6 - - - - - - - - -
24/04:00pm 24.7 SE 7 8 1013.3 - - - - - - - - -
24/03:30pm 24.7 SE 8 9 1013.1 - - - - - - - - -
24/03:00pm 24.8 SE 6 8 1013.0 - - - - - - - - -
24/02:30pm 24.7 ESE 7 9 1013.3 - - - - - - - - -
24/02:00pm 24.7 ESE 7 9 1013.4 - - - - - - - - -
24/01:30pm 24.8 ESE 7 8 1013.7 - - - - - - - - -
24/01:00pm 25.0 E 6 8 1013.8 - - - - - - - - -
24/12:30pm 25.0 E 7 9 1014.4 - - - - - - - - -
24/12:00pm 24.8 E 7 9 1014.5 - - - - - - - - -
24/11:30am 24.7 ESE 7 9 1015.0 - - - - - - - - -
24/11:00am 24.7 ESE 7 9 1015.3 - - - - - - - - -
24/10:30am 24.7 E 7 9 1015.5 - - - - - - - - -
24/10:00am 24.8 ESE 6 9 1015.7 - - - - - - - - -
24/09:30am 24.6 ESE 8 9 1015.9 - - - - - - - - -
24/09:00am 24.6 ESE 8 10 1015.7 - - - - - - - - -
24/08:30am 24.7 E 9 12 1015.7 - - - - - - - - -
24/08:00am 24.7 ESE 8 10 1015.4 - - - - - - - - -
24/07:30am 24.5 E 9 10 1015.2 - - - - - - - - -
24/07:00am 24.6 ESE 9 11 1014.7 - - - - - - - - -
24/06:30am 24.1 ESE 9 10 1014.7 - - - - - - - - -
24/06:00am 24.0 E 7 9 1014.5 - - - - - - - - -
24/05:30am 24.0 SE 6 9 1014.4 - - - - - - - - -
24/05:00am 23.9 SE 7 9 1014.0 - - - - - - - - -
24/04:30am 24.3 ESE 7 9 1013.8 - - - - - - - - -
24/04:00am 24.2 ESE 7 9 1013.5 - - - - - - - - -
24/03:30am 24.2 SE 7 8 1013.7 - - - - - - - - -
24/03:00am 24.3 SE 7 9 1013.7 - - - - - - - - -
24/02:30am 24.0 SE 8 9 1013.8 - - - - - - - - -
24/02:00am 24.1 ESE 8 9 1013.7 - - - - - - - - -
24/01:30am 23.8 E 10 10 1014.1 - - - - - - - - -
24/01:00am 24.2 SE 10 12 1014.2 - - - - - - - - -
24/12:30am 24.1 SE 7 10 1014.5 - - - - - - - - -
24/12:00am 23.9 SE 8 10 1014.5 - - - - - - - - -
 
Date/Time
EST
Temp
°C
Wind Pressure Rain since
9am
mm
Weather Cloud Vis
km
Sea
Height
m
Swell
Dir  Spd
kts
Gust
kts
hPa Trend Height
m
Period
s
Dir
23/11:30pm 24.0 SE 7 9 1014.6 - - - - - - - - -
23/11:00pm 24.2 SSE 6 8 1014.5 - - - - - - - - -
23/10:30pm 24.1 SE 7 9 1014.7 - - - - - - - - -
23/10:00pm 23.9 SE 8 9 1014.6 - - - - - - - - -
23/09:30pm 23.8 SE 9 10 1014.6 - - - - - - - - -
23/09:00pm 23.8 SE 10 11 1014.3 - - - - - - - - -
23/08:30pm 24.0 SSE 8 11 1014.3 - - - - - - - - -
23/08:00pm 24.3 SSE 8 9 1014.0 - - - - - - - - -
23/07:30pm 24.0 SSE 7 9 1013.8 - - - - - - - - -
23/07:00pm 23.9 SSE 7 8 1013.4 - - - - - - - - -
23/06:30pm 23.9 SSE 7 8 1013.4 - - - - - - - - -
23/06:00pm 24.1 SSE 7 9 1013.0 - - - - - - - - -
23/05:30pm 23.9 SSE 6 8 1012.9 - - - - - - - - -
23/05:00pm 24.1 SSE 6 8 1012.8 - - - - - - - - -
23/04:30pm 24.1 SSE 7 8 1012.5 - - - - - - - - -
23/04:00pm 24.1 S 7 8 1012.4 - - - - - - - - -
23/03:30pm 24.0 SSE 7 9 1012.5 - - - - - - - - -
23/03:00pm 24.2 SSE 7 9 1012.3 - - - - - - - - -

Other Formats:

Comma delimited format used in spreadsheet applications
http://www.bom.gov.au/fwo/IDQ60701/IDQ60701.94298.axf

JavaScript Object Notation format (JSON) in row-major order
http://www.bom.gov.au/fwo/IDQ60701/IDQ60701.94298.json